This is the latest recevied weather packets stored in our database for station/object PU5FJO-13. If no packets are shown the sender has not sent any weather packets the latest 10 day(s).
| Time | Temp. | Humidity | Pressure | Rain* | Wind** | Luminosity | Snow |
|---|---|---|---|---|---|---|---|
| 1777424167 | 16.67° C | 74% | 1018.5 hPa | - | - | - | - |
| 1777423567 | 16.67° C | 74% | 1018.3 hPa | - | - | - | - |
| 1777422967 | 16.67° C | 73% | 1018.4 hPa | - | - | - | - |
| 1777422367 | 16.67° C | 72% | 1018.4 hPa | - | - | - | - |
| 1777421767 | 16.67° C | 73% | 1018.5 hPa | - | - | - | - |
| 1777421167 | 16.67° C | 74% | 1018.6 hPa | - | - | - | - |
| 1777420567 | 17.22° C | 73% | 1018.4 hPa | - | - | - | - |
| 1777419967 | 17.78° C | 68% | 1018.5 hPa | - | - | - | - |
| 1777419367 | 18.33° C | 68% | 1018.8 hPa | - | - | - | - |
| 1777418767 | 18.33° C | 70% | 1018.7 hPa | - | - | - | - |
| 1777418167 | 17.22° C | 72% | 1019.2 hPa | - | - | - | - |
| 1777417567 | 18.33° C | 70% | 1019.1 hPa | - | - | - | - |
| 1777416967 | 18.33° C | 70% | 1018.9 hPa | - | - | - | - |
| 1777416367 | 18.33° C | 69% | 1018.8 hPa | - | - | - | - |
| 1777415767 | 17.78° C | 71% | 1018.6 hPa | - | - | - | - |
| 1777415167 | 17.78° C | 72% | 1018.7 hPa | - | - | - | - |
| 1777414567 | 17.78° C | 72% | 1018.9 hPa | - | - | - | - |
| 1777413967 | 17.78° C | 71% | 1018.7 hPa | - | - | - | - |
| 1777413367 | 18.33° C | 70% | 1018.4 hPa | - | - | - | - |
| 1777412767 | 18.89° C | 69% | 1018.3 hPa | - | - | - | - |
| 1777412168 | 18.89° C | 69% | 1018.3 hPa | - | - | - | - |
| 1777411567 | 18.89° C | 70% | 1018.2 hPa | - | - | - | - |
| 1777410967 | 19.44° C | 66% | 1018.1 hPa | - | - | - | - |
| 1777410367 | 19.44° C | 67% | 1018 hPa | - | - | - | - |
| 1777409769 | 20.56° C | 62% | 1018 hPa | - | - | - | - |
* Rain since midnight (hover to see other rain measurements)
** Current wind speed in m/s (hover to see current wind gust speed)